LJPZ/POW METAR and TAF weather

Enter ICAO airport designator
Station Type Date Time Source
LJPZ METAR 2020/07/15 06:00 UTC NOAA

LJPZ 150600Z 11003KT CAVOK 18/11 Q1013


Station Type Date Time Source
LJPZ Decoded METAR 2020/07/15 06:00 UTC NOAA

Portoroz, Slovenia (LJPZ) 45-31N 013-34E
Jul 15, 2020 - 02:00 AM EDT / 2020.07.15 0600 UTC
Wind: from the ESE (110 degrees) at 3 MPH (3 KT):0
Visibility: greater than 7 mile(s):0
Temperature: 64 F (18 C)
Dew Point: 51 F (11 C)
Relative Humidity: 63%
Pressure (altimeter): 29.91 in. Hg (1013 hPa)
ob: LJPZ 150600Z 11003KT CAVOK 18/11 Q1013
cycle: 6

Station Type Date Time Source
LJPZ TAF 2008/06/02 05:30 UTC NOAA

TAF TAF LJPZ 020530Z 021615 VRB02KT 6000 NSC
BECMG 0911 30005KT 9999 FEW040

Example: see airport list